Time;durP1;ratioP1;P1;durP2;ratioP2;P2;SDS_P1;SDS_P2;PMS_P1;PMS_P2;Temp;Humidity;BMP_temperature;BMP_pressure;BME280_temperature;BME280_humidity;BME280_pressure;Samples;Min_cycle;Max_cycle;Signal;HPM_P1;HPM_P2
2022/08/03 00:01:07;;;;;;;8.57;2.83;;;18.40;99.90;;;;;;5113017;28;20036;-74
2022/08/03 00:03:33;;;;;;;8.02;2.92;;;18.40;99.90;;;;;;5100099;28;20126;-76
2022/08/03 00:05:59;;;;;;;5.03;3.08;;;18.30;99.90;;;;;;5117756;28;20139;-76
2022/08/03 00:08:25;;;;;;;6.60;2.60;;;18.20;99.90;;;;;;5082982;28;20035;-75
2022/08/03 00:10:51;;;;;;;4.88;2.38;;;18.20;99.90;;;;;;5100019;28;20514;-75
2022/08/03 00:13:18;;;;;;;8.43;2.90;;;18.20;99.90;;;;;;5118060;28;20035;-75
2022/08/03 00:15:44;;;;;;;8.27;2.90;;;18.20;99.90;;;;;;5099918;28;20045;-74
2022/08/03 00:18:10;;;;;;;9.85;3.13;;;18.20;99.90;;;;;;5118065;28;20114;-74
2022/08/03 00:20:37;;;;;;;7.13;3.05;;;18.20;99.90;;;;;;5082654;28;20561;-76
2022/08/03 00:23:04;;;;;;;7.70;3.05;;;18.20;99.90;;;;;;5099198;28;20701;-74
2022/08/03 00:25:30;;;;;;;6.45;2.63;;;18.20;99.90;;;;;;5099911;28;20043;-75
2022/08/03 00:27:56;;;;;;;8.85;2.63;;;18.20;99.90;;;;;;5117485;28;20044;-75
2022/08/03 00:30:22;;;;;;;9.20;2.85;;;18.20;99.90;;;;;;5099537;28;20047;-75
2022/08/03 00:32:48;;;;;;;9.02;2.97;;;18.20;99.90;;;;;;5098064;28;20039;-75
2022/08/03 00:35:14;;;;;;;8.70;2.20;;;18.20;99.90;;;;;;5117870;28;20028;-75
2022/08/03 00:37:40;;;;;;;7.13;2.47;;;18.20;99.90;;;;;;5117610;28;20043;-75
2022/08/03 00:40:06;;;;;;;5.15;2.03;;;18.20;99.90;;;;;;5099562;28;20437;-74
2022/08/03 00:42:32;;;;;;;4.93;2.17;;;18.20;99.90;;;;;;5099105;28;20047;-74
2022/08/03 00:44:58;;;;;;;5.47;2.20;;;18.20;99.90;;;;;;5098927;28;20045;-75
2022/08/03 00:47:24;;;;;;;9.00;2.15;;;18.10;99.90;;;;;;5098613;28;20043;-75
2022/08/03 00:49:50;;;;;;;9.10;3.05;;;18.10;99.90;;;;;;5117631;28;20031;-76
2022/08/03 00:52:16;;;;;;;10.98;2.40;;;18.10;99.90;;;;;;5099331;28;20043;-74
2022/08/03 00:54:42;;;;;;;9.25;2.58;;;18.10;99.90;;;;;;5082119;28;20043;-75
2022/08/03 00:57:07;;;;;;;9.10;2.20;;;18.10;99.90;;;;;;5116997;28;20126;-74
2022/08/03 00:59:33;;;;;;;6.35;2.00;;;18.10;99.90;;;;;;5099336;28;20039;-75
2022/08/03 01:01:59;;;;;;;6.85;2.00;;;18.10;99.90;;;;;;5097960;28;20032;-72
2022/08/03 01:04:25;;;;;;;11.30;2.20;;;18.10;99.90;;;;;;5098428;28;20422;-74
2022/08/03 01:07:01;;;;;;;9.35;2.70;;;18.10;99.90;;;;;;5081705;28;20050;-75
2022/08/03 01:09:51;;;;;;;4.35;1.80;;;18.10;99.90;;;;;;5081168;28;20476;-74
2022/08/03 01:13:03;;;;;;;6.55;2.35;;;18.00;99.90;;;;;;5098807;28;20039;-75
2022/08/03 01:15:43;;;;;;;9.15;2.05;;;18.00;99.90;;;;;;5098629;28;20047;-75
2022/08/03 01:18:19;;;;;;;5.97;1.75;;;18.00;99.90;;;;;;5116570;28;20035;-75
2022/08/03 01:20:52;;;;;;;8.93;2.08;;;18.00;99.90;;;;;;5098619;28;20432;-75
2022/08/03 01:23:29;;;;;;;5.25;2.35;;;18.00;99.90;;;;;;5116190;28;20043;-76
2022/08/03 01:26:04;;;;;;;8.27;2.15;;;18.00;99.90;;;;;;5098527;28;20379;-74
2022/08/03 01:28:51;;;;;;;6.68;2.00;;;18.00;99.90;;;;;;5097869;28;20055;-74
2022/08/03 01:31:22;;;;;;;8.70;1.80;;;18.00;99.90;;;;;;5114571;28;20039;-74
2022/08/03 01:33:56;;;;;;;6.85;2.08;;;18.00;99.90;;;;;;5097940;28;20042;-74
2022/08/03 01:36:27;;;;;;;9.07;1.90;;;18.00;99.90;;;;;;5081147;28;20039;-74
2022/08/03 01:38:57;;;;;;;7.95;2.05;;;18.00;99.90;;;;;;5116503;28;20043;-74
2022/08/03 01:41:32;;;;;;;6.25;2.20;;;18.00;99.90;;;;;;5081100;28;20039;-74
2022/08/03 01:44:01;;;;;;;5.65;1.90;;;18.00;99.90;;;;;;5080995;28;20043;-74
2022/08/03 01:46:28;;;;;;;10.03;2.40;;;17.90;99.90;;;;;;5116296;28;20050;-74
2022/08/03 01:48:55;;;;;;;9.35;2.42;;;18.00;99.90;;;;;;5097141;28;20387;-74
2022/08/03 01:51:21;;;;;;;4.68;1.92;;;17.90;99.90;;;;;;5115421;28;20484;-76
2022/08/03 01:53:50;;;;;;;7.18;2.47;;;17.90;99.90;;;;;;5097687;28;20391;-77
2022/08/03 01:56:18;;;;;;;6.30;2.50;;;17.80;99.90;;;;;;5097434;28;20043;-75
2022/08/03 01:58:47;;;;;;;6.22;2.72;;;17.80;99.90;;;;;;5097346;28;20074;-76
2022/08/03 02:01:15;;;;;;;14.65;2.70;;;17.80;99.90;;;;;;5113455;28;20048;-75
2022/08/03 02:03:44;;;;;;;8.90;3.20;;;17.80;99.90;;;;;;5097250;28;20043;-76
2022/08/03 02:06:12;;;;;;;11.75;2.92;;;17.80;99.90;;;;;;5096919;28;20056;-75
2022/08/03 02:08:40;;;;;;;8.32;2.65;;;17.80;99.90;;;;;;5115051;28;20472;-76
2022/08/03 02:11:07;;;;;;;10.15;3.15;;;17.80;99.90;;;;;;5097032;28;20047;-75
2022/08/03 02:13:34;;;;;;;9.00;2.50;;;17.80;99.90;;;;;;5115177;28;20035;-76
2022/08/03 02:16:03;;;;;;;5.88;2.50;;;17.80;99.90;;;;;;5080594;28;20062;-75
2022/08/03 02:18:31;;;;;;;9.20;2.47;;;17.80;99.90;;;;;;5096665;28;20043;-74
2022/08/03 02:21:01;;;;;;;5.43;2.38;;;17.80;99.90;;;;;;5096688;28;20040;-74
2022/08/03 02:23:27;;;;;;;6.70;2.47;;;17.80;99.90;;;;;;5096700;28;20070;-74
2022/08/03 02:25:57;;;;;;;8.20;2.38;;;17.80;99.90;;;;;;5097265;28;20039;-74
2022/08/03 02:28:28;;;;;;;;;;;17.80;99.90;;;;;;5115806;28;20032;-73
2022/08/03 02:30:55;;;;;;;10.70;2.70;;;17.80;99.90;;;;;;5078273;28;19923;-74
2022/08/03 02:33:29;;;;;;;10.90;3.05;;;17.80;99.90;;;;;;5096616;28;20035;-74
2022/08/03 02:35:57;;;;;;;6.38;2.70;;;17.80;99.90;;;;;;5080060;28;20039;-75
2022/08/03 02:38:30;;;;;;;13.07;3.03;;;17.80;99.90;;;;;;5096611;28;20039;-74
2022/08/03 02:40:57;;;;;;;8.70;3.15;;;17.70;99.90;;;;;;5079359;28;20041;-75
2022/08/03 02:43:25;;;;;;;10.43;3.00;;;17.70;99.90;;;;;;5096593;28;20128;-72
2022/08/03 02:45:53;;;;;;;8.50;3.28;;;17.70;99.90;;;;;;5096361;28;20385;-74
2022/08/03 02:48:29;;;;;;;8.70;3.40;;;17.70;99.90;;;;;;5078994;28;20058;-74
2022/08/03 02:50:58;;;;;;;10.25;3.90;;;17.70;99.90;;;;;;5114293;28;20062;-74
2022/08/03 02:53:25;;;;;;;6.87;3.83;;;17.70;99.90;;;;;;5114201;28;20039;-74
2022/08/03 02:55:54;;;;;;;8.60;3.55;;;17.70;99.90;;;;;;5096250;28;20054;-74
2022/08/03 02:58:21;;;;;;;14.73;4.00;;;17.70;99.90;;;;;;5114299;28;20312;-72
2022/08/03 03:00:50;;;;;;;11.63;3.92;;;17.70;99.90;;;;;;5078879;28;20035;-72
2022/08/03 03:03:16;;;;;;;7.75;4.03;;;17.70;99.90;;;;;;5112679;28;20075;-73
2022/08/03 03:05:44;;;;;;;6.75;4.03;;;17.60;99.90;;;;;;5095533;28;20051;-72
2022/08/03 03:08:13;;;;;;;11.18;4.10;;;17.60;99.90;;;;;;5114231;28;20395;-71
2022/08/03 03:10:41;;;;;;;9.63;3.83;;;17.60;99.90;;;;;;5079219;28;20046;-71
2022/08/03 03:13:08;;;;;;;9.38;3.97;;;17.60;99.90;;;;;;5113707;28;20048;-71
2022/08/03 03:15:36;;;;;;;9.85;3.65;;;17.60;99.90;;;;;;5095635;28;20122;-73
2022/08/03 03:18:02;;;;;;;8.45;3.47;;;17.60;99.90;;;;;;5095555;28;20042;-74
2022/08/03 03:20:31;;;;;;;7.22;4.05;;;17.60;99.90;;;;;;5078773;28;20093;-73
2022/08/03 03:23:00;;;;;;;9.88;4.68;;;17.60;99.90;;;;;;5078770;28;20032;-72
2022/08/03 03:25:32;;;;;;;7.32;4.07;;;17.60;99.90;;;;;;5078519;28;20047;-72
2022/08/03 03:27:59;;;;;;;9.85;4.10;;;17.60;99.90;;;;;;5075257;28;20039;-73
2022/08/03 03:30:25;;;;;;;10.57;4.10;;;17.60;99.90;;;;;;5075334;28;20047;-72
2022/08/03 03:32:52;;;;;;;8.98;4.07;;;17.60;99.90;;;;;;5073723;28;20043;-72
2022/08/03 03:35:18;;;;;;;10.70;3.65;;;17.50;99.90;;;;;;5093335;28;20518;-70
2022/08/03 03:37:44;;;;;;;10.40;4.13;;;17.50;99.90;;;;;;5075617;28;20044;-71
2022/08/03 03:40:10;;;;;;;10.52;4.45;;;17.50;99.90;;;;;;5075372;28;20047;-71
2022/08/03 03:42:37;;;;;;;12.15;4.38;;;17.50;99.90;;;;;;5088348;28;20105;-72
2022/08/03 03:45:05;;;;;;;13.68;4.05;;;17.50;99.90;;;;;;5095490;28;20561;-74
2022/08/03 03:47:36;;;;;;;11.93;4.07;;;17.40;99.90;;;;;;5113620;28;20124;-70
2022/08/03 03:50:05;;;;;;;8.27;4.07;;;17.40;99.90;;;;;;5074652;28;20036;-71
2022/08/03 03:52:32;;;;;;;11.10;4.10;;;17.40;99.90;;;;;;5075269;28;20507;-71
2022/08/03 03:54:58;;;;;;;9.77;3.92;;;17.40;99.90;;;;;;5074908;28;20075;-71
2022/08/03 03:57:23;;;;;;;9.82;4.30;;;17.30;99.90;;;;;;5074802;28;20078;-72
2022/08/03 03:59:49;;;;;;;11.45;4.00;;;17.30;99.90;;;;;;5074770;28;20488;-72
2022/08/03 04:02:15;;;;;;;10.68;3.92;;;17.30;99.90;;;;;;5056086;28;20040;-72
2022/08/03 04:13:11;;;;;;;10.07;4.32;;;17.20;99.90;;;;;;5094737;28;20517;-72
2022/08/03 04:15:41;;;;;;;10.60;4.05;;;17.20;99.90;;;;;;5094697;28;20070;-72
2022/08/03 04:18:11;;;;;;;9.15;3.65;;;17.20;99.90;;;;;;5078151;28;20417;-72
2022/08/03 04:20:39;;;;;;;8.95;4.00;;;17.20;99.90;;;;;;5094803;28;20043;-72
2022/08/03 04:23:06;;;;;;;11.50;4.20;;;17.20;99.90;;;;;;5113017;28;20051;-72
2022/08/03 04:25:34;;;;;;;11.85;4.28;;;17.20;99.90;;;;;;5094989;28;20036;-72
2022/08/03 04:28:01;;;;;;;9.55;3.78;;;17.10;99.90;;;;;;5094646;28;20044;-72
2022/08/03 04:30:28;;;;;;;7.60;3.90;;;17.20;99.90;;;;;;5077687;28;20047;-72
2022/08/03 04:32:58;;;;;;;9.13;3.78;;;17.10;99.90;;;;;;5075917;28;20065;-71
2022/08/03 04:35:31;;;;;;;9.68;4.10;;;17.20;99.90;;;;;;5094576;28;20036;-71
2022/08/03 04:38:02;;;;;;;10.30;4.03;;;17.20;99.90;;;;;;5113179;28;20044;-71
2022/08/03 04:40:33;;;;;;;14.07;5.28;;;17.20;99.90;;;;;;5077881;28;20349;-71
2022/08/03 04:43:00;;;;;;;9.30;3.97;;;17.20;99.90;;;;;;5094335;28;20067;-71
2022/08/03 04:45:28;;;;;;;11.90;3.80;;;17.30;99.90;;;;;;5096396;28;20391;-72
2022/08/03 04:47:54;;;;;;;13.15;3.63;;;17.30;99.90;;;;;;5098470;28;20614;-72
2022/08/03 04:50:21;;;;;;;12.73;3.95;;;17.30;99.90;;;;;;5098537;28;20054;-72
2022/08/03 04:52:48;;;;;;;7.75;4.10;;;17.40;99.90;;;;;;5098473;28;20414;-71
2022/08/03 04:55:27;;;;;;;9.38;3.70;;;17.40;99.90;;;;;;5116928;28;20110;-71
2022/08/03 04:57:53;;;;;;;7.33;3.73;;;17.50;99.90;;;;;;5098633;28;20120;-71
2022/08/03 05:00:19;;;;;;;12.52;4.05;;;17.50;99.90;;;;;;5098248;28;20442;-71
2022/08/03 05:02:45;;;;;;;11.63;3.72;;;17.60;99.90;;;;;;5115034;28;20097;-73
2022/08/03 05:05:11;;;;;;;11.70;4.05;;;17.60;99.90;;;;;;5116419;28;20082;-72
2022/08/03 05:07:37;;;;;;;9.55;4.18;;;17.70;99.90;;;;;;5098229;28;20521;-71
2022/08/03 05:10:07;;;;;;;9.82;3.80;;;17.70;99.90;;;;;;5098409;28;20031;-71
2022/08/03 05:12:33;;;;;;;13.43;3.83;;;17.80;99.90;;;;;;5081376;28;20036;-72
2022/08/03 05:15:00;;;;;;;10.20;3.90;;;17.90;99.90;;;;;;5080969;28;20142;-72
2022/08/03 05:17:26;;;;;;;10.20;3.55;;;18.00;99.90;;;;;;5081439;28;20439;-72
2022/08/03 05:19:52;;;;;;;8.27;3.78;;;18.10;99.90;;;;;;5116323;28;20377;-73
2022/08/03 05:22:17;;;;;;;12.85;4.10;;;18.10;99.90;;;;;;5116072;28;20042;-73
2022/08/03 05:24:43;;;;;;;12.38;4.93;;;18.20;99.90;;;;;;5097899;28;20046;-73
2022/08/03 05:27:11;;;;;;;10.55;3.92;;;18.30;99.90;;;;;;5116148;28;20036;-73
2022/08/03 05:29:37;;;;;;;13.30;4.20;;;18.40;99.90;;;;;;5115822;28;20051;-73
2022/08/03 05:32:03;;;;;;;10.93;3.38;;;18.50;99.90;;;;;;5079044;28;20392;-72
2022/08/03 05:34:29;;;;;;;8.25;3.47;;;18.50;99.90;;;;;;5097850;28;20078;-73
2022/08/03 05:36:54;;;;;;;10.75;4.03;;;18.60;99.90;;;;;;5097746;28;20088;-75
2022/08/03 05:39:20;;;;;;;13.07;4.05;;;18.60;99.90;;;;;;5097503;28;20040;-75
2022/08/03 05:41:46;;;;;;;10.27;4.88;;;18.70;99.90;;;;;;5115518;28;20073;-77
2022/08/03 05:44:12;;;;;;;9.48;4.10;;;18.70;99.90;;;;;;5097227;28;20131;-74
2022/08/03 05:46:38;;;;;;;8.88;3.63;;;18.80;99.90;;;;;;5115985;28;20093;-71
2022/08/03 05:49:04;;;;;;;11.52;4.03;;;18.80;99.90;;;;;;5115574;28;20044;-75
2022/08/03 05:51:30;;;;;;;10.35;4.07;;;18.90;99.90;;;;;;5115888;28;20034;-74
2022/08/03 05:53:56;;;;;;;10.20;4.05;;;19.00;99.90;;;;;;5097786;28;20046;-74
2022/08/03 05:56:26;;;;;;;14.98;4.32;;;19.10;99.90;;;;;;5098561;28;20472;-74
2022/08/03 05:58:52;;;;;;;;;;;19.20;99.90;;;;;;5116021;28;20350;-76
2022/08/03 06:01:20;;;;;;;10.65;3.60;;;19.30;99.90;;;;;;5096045;28;19961;-79
2022/08/03 06:03:47;;;;;;;9.52;3.47;;;19.40;99.90;;;;;;5097646;28;20400;-79
2022/08/03 06:06:13;;;;;;;10.50;4.53;;;19.50;99.90;;;;;;5080264;28;20060;-79
2022/08/03 06:08:40;;;;;;;10.00;3.95;;;19.60;99.90;;;;;;5080093;28;20040;-78
2022/08/03 06:11:06;;;;;;;9.25;3.42;;;19.70;99.90;;;;;;5115351;28;20044;-78
2022/08/03 06:13:32;;;;;;;10.98;3.85;;;19.70;99.90;;;;;;5080622;28;20046;-79
2022/08/03 06:15:58;;;;;;;12.35;3.97;;;19.70;99.90;;;;;;5080567;28;20372;-80
2022/08/03 06:18:24;;;;;;;14.55;4.43;;;19.90;99.90;;;;;;5097401;28;20499;-75
2022/08/03 06:20:51;;;;;;;11.68;4.00;;;19.90;99.90;;;;;;5096777;28;20044;-78
2022/08/03 06:23:17;;;;;;;9.23;4.28;;;20.00;99.90;;;;;;5080039;28;20546;-76
2022/08/03 06:25:42;;;;;;;15.38;4.15;;;20.10;99.90;;;;;;5096565;28;20044;-78
2022/08/03 06:28:09;;;;;;;9.93;3.30;;;20.10;99.90;;;;;;5096698;28;20043;-74
2022/08/03 06:30:35;;;;;;;14.95;4.20;;;20.20;99.90;;;;;;5115127;28;20031;-76
2022/08/03 06:33:01;;;;;;;13.93;4.40;;;20.30;99.90;;;;;;5095190;28;20392;-75
2022/08/03 06:35:27;;;;;;;16.00;4.47;;;20.40;99.90;;;;;;5096937;28;20122;-79
2022/08/03 06:37:53;;;;;;;14.20;3.97;;;20.70;99.90;;;;;;5115114;28;20143;-77
2022/08/03 06:40:30;;;;;;;10.07;3.70;;;20.90;99.90;;;;;;5096591;28;20039;-79
2022/08/03 06:43:01;;;;;;;9.98;3.42;;;21.20;99.90;;;;;;5079676;28;20050;-78
2022/08/03 06:45:34;;;;;;;11.80;4.07;;;21.50;99.90;;;;;;5115086;28;20376;-78
2022/08/03 06:48:04;;;;;;;12.70;4.05;;;21.70;99.90;;;;;;5115045;28;20039;-79
2022/08/03 06:50:30;;;;;;;11.70;4.13;;;21.70;99.90;;;;;;5078423;28;20127;-78
2022/08/03 06:52:56;;;;;;;13.98;4.20;;;21.70;99.90;;;;;;5096770;28;20461;-77
2022/08/03 06:55:22;;;;;;;13.38;4.47;;;21.80;99.90;;;;;;5096127;28;20122;-79
2022/08/03 06:57:48;;;;;;;11.02;4.15;;;21.80;99.90;;;;;;5079331;28;20123;-79
2022/08/03 07:00:14;;;;;;;12.25;4.32;;;21.90;99.90;;;;;;5114972;28;20110;-78
2022/08/03 07:02:40;;;;;;;10.27;3.65;;;22.10;99.90;;;;;;5113227;28;20052;-77
2022/08/03 07:05:08;;;;;;;9.60;4.10;;;22.40;99.90;;;;;;5114174;28;20449;-76
2022/08/03 07:07:34;;;;;;;10.02;3.70;;;22.70;99.90;;;;;;5095435;28;20047;-70
2022/08/03 07:10:00;;;;;;;14.75;4.70;;;23.00;99.90;;;;;;5114251;28;20031;-74
2022/08/03 07:12:27;;;;;;;12.85;4.38;;;23.10;99.90;;;;;;5095966;28;20057;-75
2022/08/03 07:14:54;;;;;;;13.00;4.85;;;23.10;99.90;;;;;;5113699;28;20032;-72
2022/08/03 07:17:20;;;;;;;14.65;5.45;;;23.20;99.90;;;;;;5113843;28;20043;-73
2022/08/03 07:19:46;;;;;;;13.57;5.55;;;23.20;99.90;;;;;;5095810;28;20047;-75
2022/08/03 07:22:12;;;;;;;12.38;4.75;;;23.30;99.90;;;;;;5078746;28;20447;-72
2022/08/03 07:24:38;;;;;;;9.05;4.82;;;23.40;99.90;;;;;;5095404;28;20391;-74
2022/08/03 07:27:03;;;;;;;13.60;4.95;;;23.50;99.90;;;;;;5096162;28;20054;-74
2022/08/03 07:29:29;;;;;;;16.58;5.80;;;23.60;99.90;;;;;;5114421;28;20054;-73
2022/08/03 07:31:55;;;;;;;11.82;5.03;;;23.80;99.90;;;;;;5094774;28;20039;-74
2022/08/03 07:34:21;;;;;;;12.98;5.07;;;24.10;99.90;;;;;;5095614;28;20039;-74
2022/08/03 07:36:47;;;;;;;10.55;5.03;;;24.30;99.90;;;;;;5095848;28;20040;-76
2022/08/03 07:39:13;;;;;;;14.30;5.38;;;24.20;99.90;;;;;;5095953;28;20043;-74
2022/08/03 07:41:38;;;;;;;13.75;5.13;;;24.30;99.90;;;;;;5095319;28;20039;-74
2022/08/03 07:44:04;;;;;;;15.85;5.50;;;24.30;99.90;;;;;;5095359;28;20077;-74
2022/08/03 07:46:30;;;;;;;13.60;5.55;;;24.30;99.90;;;;;;5095028;28;20040;-71
2022/08/03 07:48:56;;;;;;;15.73;5.22;;;24.20;99.90;;;;;;5097422;28;20112;-71
2022/08/03 07:51:22;;;;;;;17.05;5.13;;;24.30;99.90;;;;;;5093093;28;20396;-73
2022/08/03 07:53:48;;;;;;;13.02;5.32;;;24.30;99.90;;;;;;5075103;28;20040;-71
2022/08/03 07:56:15;;;;;;;13.25;6.72;;;24.30;99.90;;;;;;5092367;28;20039;-74
2022/08/03 07:58:41;;;;;;;13.43;5.47;;;24.30;99.90;;;;;;5093494;28;20123;-73
2022/08/03 08:01:07;;;;;;;15.07;6.03;;;24.10;99.90;;;;;;5092270;28;20484;-74
2022/08/03 08:03:33;;;;;;;16.25;6.28;;;23.80;99.90;;;;;;5093215;28;20070;-74
2022/08/03 08:05:59;;;;;;;15.63;6.32;;;23.60;99.90;;;;;;5093493;28;20183;-72
2022/08/03 08:08:24;;;;;;;12.00;5.88;;;23.50;99.90;;;;;;5077832;28;20122;-74
2022/08/03 08:10:50;;;;;;;16.58;6.43;;;23.60;99.90;;;;;;5095270;28;20480;-73
2022/08/03 08:13:16;;;;;;;12.70;6.15;;;23.80;99.90;;;;;;5095173;28;20491;-73
2022/08/03 08:15:42;;;;;;;12.35;6.63;;;24.10;99.90;;;;;;5077896;28;20065;-79
2022/08/03 08:18:08;;;;;;;13.02;5.38;;;24.50;99.90;;;;;;5095352;28;20138;-73
2022/08/03 08:20:37;;;;;;;14.63;5.30;;;24.80;99.90;;;;;;5115448;28;20032;-73
2022/08/03 08:23:06;;;;;;;14.18;6.28;;;25.20;99.90;;;;;;5098920;28;20047;-74
2022/08/03 08:25:32;;;;;;;8.80;4.50;;;25.50;99.90;;;;;;5098699;28;20031;-75
2022/08/03 08:28:03;;;;;;;13.20;5.97;;;25.90;99.90;;;;;;5098810;28;20051;-76
2022/08/03 08:30:30;;;;;;;15.50;5.53;;;26.20;99.90;;;;;;5099002;28;20036;-78
2022/08/03 08:32:56;;;;;;;14.35;4.90;;;26.50;99.90;;;;;;5097167;28;20736;-74
2022/08/03 08:35:22;;;;;;;13.98;5.05;;;26.60;99.90;;;;;;5116517;28;20047;-74
2022/08/03 08:37:48;;;;;;;14.25;5.05;;;26.60;99.90;;;;;;5080642;28;20407;-74
2022/08/03 08:40:15;;;;;;;13.88;5.22;;;26.60;99.90;;;;;;5097539;28;20044;-76
2022/08/03 08:42:43;;;;;;;11.13;5.28;;;26.80;99.90;;;;;;5097118;28;20045;-72
2022/08/03 08:45:10;;;;;;;16.05;5.72;;;26.80;99.90;;;;;;5115768;28;20032;-73
2022/08/03 08:47:39;;;;;;;13.77;6.00;;;26.80;99.90;;;;;;5116021;28;20047;-71
2022/08/03 08:50:10;;;;;;;8.18;5.18;;;26.70;99.90;;;;;;5097478;28;20113;-72
2022/08/03 08:52:38;;;;;;;9.18;5.38;;;26.60;99.90;;;;;;5097112;28;20093;-71
2022/08/03 08:55:06;;;;;;;12.90;5.63;;;26.70;99.90;;;;;;5115503;28;20032;-73
2022/08/03 08:57:37;;;;;;;10.27;5.63;;;26.90;99.90;;;;;;5080140;28;20067;-73
2022/08/03 09:00:09;;;;;;;16.88;6.40;;;26.90;99.90;;;;;;5097614;28;20039;-74
2022/08/03 09:02:35;;;;;;;16.25;5.72;;;26.70;99.90;;;;;;5113488;28;20032;-73
2022/08/03 09:05:02;;;;;;;13.85;5.45;;;26.60;99.90;;;;;;5097256;28;20139;-71
2022/08/03 09:07:28;;;;;;;14.43;5.75;;;26.60;99.90;;;;;;5097125;28;20046;-77
2022/08/03 09:09:54;;;;;;;11.32;6.38;;;26.50;99.90;;;;;;5115299;28;20039;-72
2022/08/03 09:12:21;;;;;;;11.70;5.40;;;26.20;99.90;;;;;;5079752;28;20461;-73
2022/08/03 09:14:47;;;;;;;13.82;6.43;;;26.00;99.90;;;;;;5096917;28;20035;-72
2022/08/03 09:17:13;;;;;;;13.65;6.28;;;26.10;99.90;;;;;;5115240;28;20036;-76
2022/08/03 09:19:38;;;;;;;14.88;6.15;;;26.30;99.90;;;;;;5115088;28;20188;-77
2022/08/03 09:22:13;;;;;;;11.50;6.25;;;26.60;99.90;;;;;;5079930;28;20044;-74
2022/08/03 09:25:00;;;;;;;16.88;6.70;;;26.90;99.90;;;;;;5096725;28;20507;-74
2022/08/03 09:27:26;;;;;;;13.98;6.10;;;27.00;99.90;;;;;;5096642;28;20130;-76
2022/08/03 09:29:53;;;;;;;18.45;6.50;;;27.20;99.90;;;;;;5080086;28;20131;-73
2022/08/03 09:32:21;;;;;;;13.95;6.28;;;27.50;99.90;;;;;;5077763;28;20043;-73
2022/08/03 09:34:48;;;;;;;14.93;6.45;;;27.80;99.90;;;;;;5096749;28;20050;-73
2022/08/03 09:37:16;;;;;;;14.45;5.60;;;28.10;99.90;;;;;;5114890;28;20036;-76
2022/08/03 09:39:44;;;;;;;12.97;6.70;;;28.20;99.90;;;;;;5079723;28;20042;-76
2022/08/03 09:42:14;;;;;;;11.85;5.90;;;28.40;99.90;;;;;;5096530;28;20088;-74
2022/08/03 09:44:42;;;;;;;13.60;7.10;;;28.50;99.90;;;;;;5096492;28;20042;-75
2022/08/03 09:47:13;;;;;;;15.20;6.72;;;28.40;99.90;;;;;;5080829;28;20349;-77
2022/08/03 09:49:40;;;;;;;14.25;7.70;;;28.30;99.90;;;;;;5097184;28;20044;-73
2022/08/03 09:52:21;;;;;;;12.95;6.75;;;28.50;99.90;;;;;;5097541;28;20371;-74
2022/08/03 09:54:52;;;;;;;14.50;7.28;;;28.30;99.90;;;;;;5114967;28;20035;-74
2022/08/03 09:57:26;;;;;;;15.98;7.18;;;28.20;99.90;;;;;;5097041;28;20045;-73
2022/08/03 10:00:04;;;;;;;13.70;6.95;;;28.50;99.90;;;;;;5097289;28;20046;-75
2022/08/03 10:02:30;;;;;;;15.32;7.15;;;28.50;99.90;;;;;;5096658;28;20498;-72
2022/08/03 10:04:56;;;;;;;17.98;7.75;;;28.70;99.90;;;;;;5097059;28;20142;-76
2022/08/03 10:07:23;;;;;;;16.17;6.70;;;28.80;99.90;;;;;;5097119;28;20130;-74
2022/08/03 10:10:00;;;;;;;17.98;6.70;;;28.90;99.90;;;;;;5080303;28;20046;-78
2022/08/03 10:12:27;;;;;;;16.83;6.68;;;29.10;99.90;;;;;;5097184;28;20047;-76
2022/08/03 10:14:53;;;;;;;17.00;6.88;;;29.30;99.90;;;;;;5097358;28;20042;-75
2022/08/03 10:17:21;;;;;;;17.88;7.63;;;29.60;99.90;;;;;;5097241;28;20028;-81
2022/08/03 10:19:48;;;;;;;13.50;6.30;;;29.70;99.90;;;;;;5097265;28;20043;-74
2022/08/03 10:22:18;;;;;;;19.33;6.60;;;29.80;99.90;;;;;;5096355;28;20039;-79
2022/08/03 10:24:58;;;;;;;16.15;5.85;;;29.80;99.90;;;;;;5091960;28;20105;-75
2022/08/03 10:27:26;;;;;;;14.48;5.72;;;29.80;99.90;;;;;;5077902;28;20071;-80
2022/08/03 10:29:57;;;;;;;15.77;5.97;;;29.90;99.90;;;;;;5096489;28;20039;-75
2022/08/03 10:32:42;;;;;;;14.52;6.72;;;29.80;99.90;;;;;;5078395;28;20042;-77
2022/08/03 10:35:13;;;;;;;13.57;6.75;;;29.80;99.90;;;;;;5096446;28;20031;-76
2022/08/03 10:37:58;;;;;;;16.63;6.63;;;29.80;99.90;;;;;;5115525;28;20031;-81
2022/08/03 10:40:27;;;;;;;17.42;6.57;;;29.60;99.90;;;;;;5094896;28;20132;-81
2022/08/03 10:42:56;;;;;;;14.43;5.87;;;29.50;99.90;;;;;;5096163;28;20092;-82
2022/08/03 10:45:27;;;;;;;13.70;7.07;;;29.50;99.90;;;;;;5096898;28;20044;-80
2022/08/03 10:47:55;;;;;;;14.35;7.57;;;29.50;99.90;;;;;;5096952;28;20044;-80
2022/08/03 10:50:23;;;;;;;19.10;6.88;;;29.60;99.90;;;;;;5079594;28;20532;-79
2022/08/03 10:52:56;;;;;;;15.60;7.53;;;29.80;99.90;;;;;;5096653;28;20038;-81
2022/08/03 10:58:37;;;;;;;21.23;7.82;;;30.50;99.90;;;;;;5096077;28;20051;-79
2022/08/03 11:01:11;;;;;;;14.38;6.55;;;30.70;99.90;;;;;;5094612;28;20040;-75
2022/08/03 11:03:52;;;;;;;17.23;7.85;;;30.60;99.90;;;;;;5114124;28;20040;-78
2022/08/03 11:06:23;;;;;;;16.80;7.68;;;30.50;99.90;;;;;;5095444;28;20055;-79
2022/08/03 11:09:10;;;;;;;16.63;8.57;;;30.60;99.90;;;;;;5075362;28;20051;-76
2022/08/03 11:11:37;;;;;;;21.52;8.77;;;30.60;99.90;;;;;;5057777;28;20056;-78
2022/08/03 11:14:10;;;;;;;16.85;7.70;;;30.70;99.90;;;;;;5075437;28;20460;-76
2022/08/03 11:16:40;;;;;;;17.60;9.40;;;30.60;99.90;;;;;;5075551;28;20040;-77
2022/08/03 11:19:11;;;;;;;14.27;7.95;;;30.40;99.90;;;;;;5075329;28;20052;-79
2022/08/03 11:21:49;;;;;;;17.73;8.63;;;30.30;99.90;;;;;;5075319;28;20040;-76
2022/08/03 11:24:40;;;;;;;14.52;8.15;;;30.30;99.90;;;;;;5075047;28;20040;-76
2022/08/03 11:27:32;;;;;;;21.83;8.77;;;30.20;99.90;;;;;;5058421;28;20536;-77
2022/08/03 11:30:08;;;;;;;13.38;7.80;;;30.30;99.90;;;;;;5092934;28;20506;-77
2022/08/03 11:32:42;;;;;;;19.15;9.43;;;30.20;99.90;;;;;;5073420;28;20058;-74
2022/08/03 11:35:18;;;;;;;17.35;8.07;;;30.30;99.90;;;;;;5058194;28;20036;-74
2022/08/03 11:37:53;;;;;;;20.17;8.75;;;30.30;99.90;;;;;;5075304;28;20445;-72
2022/08/03 11:40:47;;;;;;;13.50;7.47;;;30.50;99.90;;;;;;5093180;28;20032;-72
2022/08/03 11:43:34;;;;;;;18.75;8.35;;;30.60;99.90;;;;;;5092792;28;20532;-75
2022/08/03 11:46:05;;;;;;;17.90;9.35;;;30.50;99.70;;;;;;5074988;28;20488;-72
2022/08/03 11:48:42;;;;;;;21.08;9.25;;;30.30;99.90;;;;;;5057987;28;20179;-75
2022/08/03 11:51:22;;;;;;;17.77;7.95;;;30.30;99.90;;;;;;5058747;28;20044;-74
2022/08/03 11:53:56;;;;;;;19.48;9.10;;;30.30;99.90;;;;;;5072938;28;20098;-72
2022/08/03 11:56:23;;;;;;;17.63;8.57;;;30.30;99.90;;;;;;5073692;28;20117;-79
2022/08/03 11:58:52;;;;;;;18.08;8.75;;;30.30;99.90;;;;;;5057835;28;20465;-74
2022/08/03 12:01:19;;;;;;;17.02;7.57;;;30.30;99.90;;;;;;5072805;28;20042;-77
2022/08/03 12:03:44;;;;;;;14.23;6.50;;;30.30;99.90;;;;;;5074751;28;20082;-75
2022/08/03 12:06:13;;;;;;;14.77;6.95;;;30.50;99.90;;;;;;5091592;28;20130;-75
2022/08/03 12:08:40;;;;;;;16.05;6.75;;;30.60;99.90;;;;;;5113603;28;20395;-79
2022/08/03 12:11:12;;;;;;;12.05;6.00;;;30.60;98.30;;;;;;5083067;28;20067;-78
2022/08/03 12:13:39;;;;;;;15.05;6.68;;;30.50;98.90;;;;;;5057870;28;20051;-73
2022/08/03 12:16:06;;;;;;;15.18;7.45;;;30.50;99.70;;;;;;5092640;28;20031;-77
2022/08/03 12:18:32;;;;;;;18.80;8.15;;;30.50;99.50;;;;;;5092710;28;20048;-76
2022/08/03 12:21:10;;;;;;;18.88;7.97;;;30.50;99.80;;;;;;5092784;28;20032;-82
2022/08/03 12:23:37;;;;;;;13.77;6.47;;;30.40;99.60;;;;;;5074743;28;20768;-76
2022/08/03 12:26:08;;;;;;;17.52;6.18;;;30.30;98.70;;;;;;5074425;28;20071;-75
2022/08/03 12:28:36;;;;;;;16.65;7.05;;;30.20;98.30;;;;;;5074468;28;20051;-75
2022/08/03 12:31:08;;;;;;;19.08;8.32;;;30.10;99.90;;;;;;5070655;28;20776;-78
2022/08/03 12:33:57;;;;;;;15.25;6.70;;;30.10;99.90;;;;;;5074540;28;20044;-74
2022/08/03 12:36:23;;;;;;;13.05;5.45;;;30.10;99.40;;;;;;5092908;28;20032;-76
2022/08/03 12:39:04;;;;;;;15.95;6.95;;;30.00;99.00;;;;;;5092519;28;20097;-73
2022/08/03 12:41:39;;;;;;;13.35;6.70;;;29.90;99.20;;;;;;5080199;28;20118;-75
2022/08/03 12:44:07;;;;;;;15.23;6.35;;;29.80;98.00;;;;;;5112573;28;20043;-73
2022/08/03 12:46:34;;;;;;;13.15;5.38;;;29.60;97.50;;;;;;5112851;28;20387;-73
2022/08/03 12:49:15;;;;;;;15.38;5.80;;;29.50;98.50;;;;;;5077388;28;20036;-73
2022/08/03 12:51:41;;;;;;;11.65;6.60;;;29.50;99.70;;;;;;5112595;28;20032;-75
2022/08/03 12:54:18;;;;;;;16.77;7.25;;;29.50;99.60;;;;;;5094163;28;20047;-73
2022/08/03 12:57:05;;;;;;;13.27;6.10;;;29.50;99.80;;;;;;5093835;28;20088;-73
2022/08/03 12:59:41;;;;;;;12.60;5.82;;;29.50;99.00;;;;;;5072992;28;20562;-73
2022/08/03 13:02:24;;;;;;;11.95;7.07;;;29.40;98.60;;;;;;5092323;28;20503;-73